DRRU weather

Ouallam Airport
Ouallam, Tillabéri Region, Niger

Public forecast

Using degrees Celsius for public forecast. Weather courtesy of forecast.io.

METAR (pilot weather report)

Report is more than 6 hours old.

Closest report is Tillabery Airport, 36.7 nm (68.0 km) WSW. Retrieved 2009/09/25 16:40 UTC (10 years ago):

DRRL 251640Z 26004KT 9999 FEW040CB BKN300

TAF (pilot weather forecast)

Closest forecast is Diori Hamani International Airport, 51.5 nm (95.3 km) S. Retrieved 2019/04/18 12:21 UTC (2 hours ago):

TAF DRRN 181100Z 1812/1918 12010KT 5000 DU NSC TEMPO 1817/1821 3000 DU TEMPO 1906/1909 3000 DU